sensor_id;sensor_type;location;lat;lon;timestamp;P1;durP1;ratioP1;P2;durP2;ratioP2
36355;SDS011;22384;54.302;18.596;2023-01-08T00:01:12;575.53;;;38.58;;
36355;SDS011;22384;54.302;18.596;2023-01-08T00:03:38;491.95;;;37.65;;
36355;SDS011;22384;54.302;18.596;2023-01-08T00:06:05;283.65;;;33.10;;
36355;SDS011;22384;54.302;18.596;2023-01-08T00:08:32;531.65;;;37.80;;
36355;SDS011;22384;54.302;18.596;2023-01-08T00:10:58;517.47;;;35.65;;
36355;SDS011;22384;54.302;18.596;2023-01-08T00:13:24;515.05;;;34.78;;
36355;SDS011;22384;54.302;18.596;2023-01-08T00:15:50;635.60;;;39.28;;
36355;SDS011;22384;54.302;18.596;2023-01-08T00:18:16;268.75;;;31.00;;
36355;SDS011;22384;54.302;18.596;2023-01-08T00:20:43;285.45;;;34.97;;
36355;SDS011;22384;54.302;18.596;2023-01-08T00:23:12;370.10;;;35.22;;
36355;SDS011;22384;54.302;18.596;2023-01-08T00:25:38;390.58;;;35.50;;
36355;SDS011;22384;54.302;18.596;2023-01-08T00:28:04;425.40;;;34.95;;
36355;SDS011;22384;54.302;18.596;2023-01-08T00:30:31;554.17;;;37.78;;
36355;SDS011;22384;54.302;18.596;2023-01-08T00:32:57;638.13;;;40.20;;
36355;SDS011;22384;54.302;18.596;2023-01-08T00:35:23;331.42;;;34.58;;
36355;SDS011;22384;54.302;18.596;2023-01-08T00:37:49;588.13;;;39.33;;
36355;SDS011;22384;54.302;18.596;2023-01-08T00:40:15;643.70;;;40.30;;
36355;SDS011;22384;54.302;18.596;2023-01-08T00:42:41;405.45;;;39.13;;
36355;SDS011;22384;54.302;18.596;2023-01-08T00:45:07;391.55;;;36.67;;
36355;SDS011;22384;54.302;18.596;2023-01-08T00:47:33;322.42;;;35.65;;
36355;SDS011;22384;54.302;18.596;2023-01-08T00:49:59;561.45;;;41.50;;
36355;SDS011;22384;54.302;18.596;2023-01-08T00:52:25;528.85;;;39.80;;
36355;SDS011;22384;54.302;18.596;2023-01-08T00:54:52;691.10;;;45.20;;
36355;SDS011;22384;54.302;18.596;2023-01-08T00:57:18;728.60;;;46.28;;
36355;SDS011;22384;54.302;18.596;2023-01-08T00:59:44;665.60;;;43.45;;
36355;SDS011;22384;54.302;18.596;2023-01-08T01:02:10;671.47;;;42.03;;
36355;SDS011;22384;54.302;18.596;2023-01-08T01:04:37;651.78;;;42.42;;
36355;SDS011;22384;54.302;18.596;2023-01-08T01:07:03;717.50;;;46.75;;
36355;SDS011;22384;54.302;18.596;2023-01-08T01:09:29;699.85;;;46.78;;
36355;SDS011;22384;54.302;18.596;2023-01-08T01:11:55;766.00;;;48.17;;
36355;SDS011;22384;54.302;18.596;2023-01-08T01:14:21;769.97;;;48.08;;
36355;SDS011;22384;54.302;18.596;2023-01-08T01:16:47;687.97;;;46.65;;
36355;SDS011;22384;54.302;18.596;2023-01-08T01:19:14;484.48;;;43.05;;
36355;SDS011;22384;54.302;18.596;2023-01-08T01:21:41;717.03;;;45.97;;
36355;SDS011;22384;54.302;18.596;2023-01-08T01:24:08;456.13;;;42.78;;
36355;SDS011;22384;54.302;18.596;2023-01-08T01:26:35;614.17;;;45.42;;
36355;SDS011;22384;54.302;18.596;2023-01-08T01:29:01;733.22;;;48.72;;
36355;SDS011;22384;54.302;18.596;2023-01-08T01:31:28;742.58;;;50.13;;
36355;SDS011;22384;54.302;18.596;2023-01-08T01:33:55;724.28;;;47.58;;
36355;SDS011;22384;54.302;18.596;2023-01-08T01:36:22;955.42;;;52.05;;
36355;SDS011;22384;54.302;18.596;2023-01-08T01:38:49;660.65;;;44.70;;
36355;SDS011;22384;54.302;18.596;2023-01-08T01:41:28;550.88;;;44.70;;
36355;SDS011;22384;54.302;18.596;2023-01-08T01:43:55;798.30;;;51.60;;
36355;SDS011;22384;54.302;18.596;2023-01-08T01:48:49;745.65;;;51.45;;
36355;SDS011;22384;54.302;18.596;2023-01-08T01:51:16;414.77;;;43.35;;
36355;SDS011;22384;54.302;18.596;2023-01-08T01:53:42;589.92;;;47.85;;
36355;SDS011;22384;54.302;18.596;2023-01-08T01:56:08;565.58;;;45.40;;
36355;SDS011;22384;54.302;18.596;2023-01-08T01:58:35;530.83;;;43.85;;
36355;SDS011;22384;54.302;18.596;2023-01-08T02:01:02;549.35;;;45.33;;
36355;SDS011;22384;54.302;18.596;2023-01-08T02:03:31;755.60;;;48.22;;
36355;SDS011;22384;54.302;18.596;2023-01-08T02:06:09;691.55;;;46.00;;
36355;SDS011;22384;54.302;18.596;2023-01-08T02:13:33;671.35;;;47.40;;
36355;SDS011;22384;54.302;18.596;2023-01-08T02:24:02;430.08;;;46.28;;
36355;SDS011;22384;54.302;18.596;2023-01-08T02:26:32;355.98;;;40.67;;
36355;SDS011;22384;54.302;18.596;2023-01-08T02:29:09;384.90;;;40.55;;
36355;SDS011;22384;54.302;18.596;2023-01-08T02:31:37;461.17;;;43.03;;
36355;SDS011;22384;54.302;18.596;2023-01-08T02:34:03;391.52;;;42.80;;
36355;SDS011;22384;54.302;18.596;2023-01-08T02:44:40;617.78;;;45.35;;
36355;SDS011;22384;54.302;18.596;2023-01-08T02:47:04;349.80;;;39.65;;
36355;SDS011;22384;54.302;18.596;2023-01-08T02:49:31;690.95;;;45.60;;
36355;SDS011;22384;54.302;18.596;2023-01-08T02:52:00;435.77;;;40.40;;
36355;SDS011;22384;54.302;18.596;2023-01-08T02:54:29;690.33;;;44.28;;
36355;SDS011;22384;54.302;18.596;2023-01-08T02:57:04;643.83;;;44.53;;
36355;SDS011;22384;54.302;18.596;2023-01-08T02:59:32;437.52;;;39.85;;
36355;SDS011;22384;54.302;18.596;2023-01-08T03:01:59;351.15;;;38.22;;
36355;SDS011;22384;54.302;18.596;2023-01-08T03:04:26;588.17;;;41.53;;
36355;SDS011;22384;54.302;18.596;2023-01-08T03:06:53;600.40;;;41.25;;
36355;SDS011;22384;54.302;18.596;2023-01-08T03:09:19;321.90;;;38.05;;
36355;SDS011;22384;54.302;18.596;2023-01-08T03:11:49;490.80;;;40.45;;
36355;SDS011;22384;54.302;18.596;2023-01-08T03:16:59;606.80;;;40.95;;
36355;SDS011;22384;54.302;18.596;2023-01-08T03:19:34;542.55;;;40.95;;
36355;SDS011;22384;54.302;18.596;2023-01-08T03:22:01;456.00;;;38.90;;
36355;SDS011;22384;54.302;18.596;2023-01-08T03:24:29;452.00;;;38.80;;
36355;SDS011;22384;54.302;18.596;2023-01-08T03:26:58;361.60;;;38.25;;
36355;SDS011;22384;54.302;18.596;2023-01-08T03:29:27;229.95;;;33.42;;
36355;SDS011;22384;54.302;18.596;2023-01-08T03:31:54;242.10;;;34.97;;
36355;SDS011;22384;54.302;18.596;2023-01-08T03:34:21;372.85;;;37.80;;
36355;SDS011;22384;54.302;18.596;2023-01-08T03:36:49;283.67;;;35.97;;
36355;SDS011;22384;54.302;18.596;2023-01-08T03:39:18;302.25;;;35.30;;
36355;SDS011;22384;54.302;18.596;2023-01-08T03:41:46;224.70;;;36.55;;
36355;SDS011;22384;54.302;18.596;2023-01-08T03:44:13;232.40;;;35.83;;
36355;SDS011;22384;54.302;18.596;2023-01-08T03:46:41;235.10;;;33.35;;
36355;SDS011;22384;54.302;18.596;2023-01-08T03:49:09;247.90;;;33.92;;
36355;SDS011;22384;54.302;18.596;2023-01-08T03:51:41;201.68;;;33.70;;
36355;SDS011;22384;54.302;18.596;2023-01-08T03:54:10;255.73;;;35.20;;
36355;SDS011;22384;54.302;18.596;2023-01-08T03:56:37;200.43;;;35.03;;
36355;SDS011;22384;54.302;18.596;2023-01-08T03:59:03;173.40;;;35.60;;
36355;SDS011;22384;54.302;18.596;2023-01-08T04:01:31;178.23;;;35.03;;
36355;SDS011;22384;54.302;18.596;2023-01-08T04:03:57;112.90;;;34.08;;
36355;SDS011;22384;54.302;18.596;2023-01-08T04:06:23;129.27;;;33.40;;
36355;SDS011;22384;54.302;18.596;2023-01-08T04:08:49;115.82;;;34.50;;
36355;SDS011;22384;54.302;18.596;2023-01-08T04:11:15;101.10;;;34.28;;
36355;SDS011;22384;54.302;18.596;2023-01-08T04:13:41;99.07;;;34.25;;
36355;SDS011;22384;54.302;18.596;2023-01-08T04:16:07;97.50;;;31.65;;
36355;SDS011;22384;54.302;18.596;2023-01-08T04:18:33;109.03;;;32.97;;
36355;SDS011;22384;54.302;18.596;2023-01-08T04:20:59;101.55;;;33.13;;
36355;SDS011;22384;54.302;18.596;2023-01-08T04:23:25;103.35;;;32.40;;
36355;SDS011;22384;54.302;18.596;2023-01-08T04:25:51;100.47;;;31.35;;
36355;SDS011;22384;54.302;18.596;2023-01-08T04:28:18;88.53;;;31.23;;
36355;SDS011;22384;54.302;18.596;2023-01-08T04:30:44;87.22;;;30.95;;
36355;SDS011;22384;54.302;18.596;2023-01-08T04:33:10;82.68;;;31.73;;
36355;SDS011;22384;54.302;18.596;2023-01-08T04:35:36;81.95;;;30.17;;
36355;SDS011;22384;54.302;18.596;2023-01-08T04:38:03;80.13;;;30.52;;
36355;SDS011;22384;54.302;18.596;2023-01-08T04:40:30;81.82;;;28.67;;
36355;SDS011;22384;54.302;18.596;2023-01-08T04:42:56;78.20;;;28.85;;
36355;SDS011;22384;54.302;18.596;2023-01-08T04:45:23;74.05;;;28.88;;
36355;SDS011;22384;54.302;18.596;2023-01-08T04:47:54;86.85;;;30.45;;
36355;SDS011;22384;54.302;18.596;2023-01-08T04:50:20;75.15;;;28.65;;
36355;SDS011;22384;54.302;18.596;2023-01-08T04:52:47;74.90;;;28.10;;
36355;SDS011;22384;54.302;18.596;2023-01-08T04:55:13;66.93;;;26.45;;
36355;SDS011;22384;54.302;18.596;2023-01-08T04:57:39;72.38;;;28.23;;
36355;SDS011;22384;54.302;18.596;2023-01-08T05:00:06;74.18;;;29.00;;
36355;SDS011;22384;54.302;18.596;2023-01-08T05:02:33;76.38;;;29.10;;
36355;SDS011;22384;54.302;18.596;2023-01-08T05:04:59;77.38;;;30.88;;
36355;SDS011;22384;54.302;18.596;2023-01-08T05:07:25;74.32;;;29.30;;
36355;SDS011;22384;54.302;18.596;2023-01-08T05:09:51;80.45;;;31.05;;
36355;SDS011;22384;54.302;18.596;2023-01-08T05:12:17;80.45;;;30.42;;
36355;SDS011;22384;54.302;18.596;2023-01-08T05:14:44;79.50;;;29.98;;
36355;SDS011;22384;54.302;18.596;2023-01-08T05:17:10;81.97;;;30.92;;
36355;SDS011;22384;54.302;18.596;2023-01-08T05:19:36;82.60;;;29.73;;
36355;SDS011;22384;54.302;18.596;2023-01-08T05:22:02;74.35;;;30.15;;
36355;SDS011;22384;54.302;18.596;2023-01-08T05:24:29;83.85;;;32.42;;
36355;SDS011;22384;54.302;18.596;2023-01-08T05:26:55;83.30;;;31.50;;
36355;SDS011;22384;54.302;18.596;2023-01-08T05:29:21;76.13;;;30.98;;
36355;SDS011;22384;54.302;18.596;2023-01-08T05:31:47;82.55;;;33.30;;
36355;SDS011;22384;54.302;18.596;2023-01-08T05:34:13;88.18;;;35.22;;
36355;SDS011;22384;54.302;18.596;2023-01-08T05:36:39;82.07;;;33.28;;
36355;SDS011;22384;54.302;18.596;2023-01-08T05:39:05;82.40;;;33.90;;
36355;SDS011;22384;54.302;18.596;2023-01-08T05:41:31;90.43;;;36.17;;
36355;SDS011;22384;54.302;18.596;2023-01-08T05:43:58;91.93;;;36.20;;
36355;SDS011;22384;54.302;18.596;2023-01-08T05:46:24;98.95;;;38.65;;
36355;SDS011;22384;54.302;18.596;2023-01-08T05:48:50;93.35;;;38.40;;
36355;SDS011;22384;54.302;18.596;2023-01-08T05:51:16;92.65;;;37.00;;
36355;SDS011;22384;54.302;18.596;2023-01-08T05:53:42;98.57;;;38.97;;
36355;SDS011;22384;54.302;18.596;2023-01-08T05:56:09;98.82;;;38.33;;
36355;SDS011;22384;54.302;18.596;2023-01-08T05:58:36;94.82;;;38.53;;
36355;SDS011;22384;54.302;18.596;2023-01-08T06:01:03;101.93;;;40.05;;
36355;SDS011;22384;54.302;18.596;2023-01-08T06:03:29;96.30;;;39.00;;
36355;SDS011;22384;54.302;18.596;2023-01-08T06:06:01;104.15;;;40.70;;
36355;SDS011;22384;54.302;18.596;2023-01-08T06:08:28;92.57;;;39.13;;
36355;SDS011;22384;54.302;18.596;2023-01-08T06:11:00;98.15;;;40.90;;
36355;SDS011;22384;54.302;18.596;2023-01-08T06:13:27;102.45;;;40.17;;
36355;SDS011;22384;54.302;18.596;2023-01-08T06:15:53;98.35;;;40.03;;
36355;SDS011;22384;54.302;18.596;2023-01-08T06:18:19;85.43;;;36.28;;
36355;SDS011;22384;54.302;18.596;2023-01-08T06:20:45;89.55;;;37.47;;
36355;SDS011;22384;54.302;18.596;2023-01-08T06:23:11;88.18;;;36.40;;
36355;SDS011;22384;54.302;18.596;2023-01-08T06:25:37;80.53;;;34.90;;
36355;SDS011;22384;54.302;18.596;2023-01-08T06:28:03;89.63;;;38.72;;
36355;SDS011;22384;54.302;18.596;2023-01-08T06:30:30;93.40;;;39.10;;
36355;SDS011;22384;54.302;18.596;2023-01-08T06:32:56;82.22;;;35.38;;
36355;SDS011;22384;54.302;18.596;2023-01-08T06:35:23;90.43;;;37.35;;
36355;SDS011;22384;54.302;18.596;2023-01-08T06:37:49;92.00;;;38.67;;
36355;SDS011;22384;54.302;18.596;2023-01-08T06:40:15;81.32;;;36.88;;
36355;SDS011;22384;54.302;18.596;2023-01-08T06:42:41;88.47;;;38.65;;
36355;SDS011;22384;54.302;18.596;2023-01-08T06:45:08;101.13;;;38.00;;
36355;SDS011;22384;54.302;18.596;2023-01-08T06:47:35;88.60;;;36.67;;
36355;SDS011;22384;54.302;18.596;2023-01-08T06:50:01;84.43;;;36.20;;
36355;SDS011;22384;54.302;18.596;2023-01-08T06:52:27;92.30;;;37.78;;
36355;SDS011;22384;54.302;18.596;2023-01-08T06:54:53;75.75;;;34.65;;
36355;SDS011;22384;54.302;18.596;2023-01-08T06:57:19;90.82;;;36.30;;
36355;SDS011;22384;54.302;18.596;2023-01-08T06:59:45;85.57;;;35.60;;
36355;SDS011;22384;54.302;18.596;2023-01-08T07:02:14;83.53;;;36.25;;
36355;SDS011;22384;54.302;18.596;2023-01-08T07:04:41;86.20;;;34.78;;
36355;SDS011;22384;54.302;18.596;2023-01-08T07:07:07;86.13;;;37.05;;
36355;SDS011;22384;54.302;18.596;2023-01-08T07:09:33;85.07;;;37.17;;
36355;SDS011;22384;54.302;18.596;2023-01-08T07:11:59;85.88;;;35.90;;
36355;SDS011;22384;54.302;18.596;2023-01-08T07:14:26;86.78;;;37.72;;
36355;SDS011;22384;54.302;18.596;2023-01-08T07:16:52;87.07;;;37.50;;
36355;SDS011;22384;54.302;18.596;2023-01-08T07:19:18;92.45;;;37.15;;
36355;SDS011;22384;54.302;18.596;2023-01-08T07:21:44;90.00;;;36.83;;
36355;SDS011;22384;54.302;18.596;2023-01-08T07:24:10;83.18;;;35.17;;
36355;SDS011;22384;54.302;18.596;2023-01-08T07:26:36;79.97;;;36.88;;
36355;SDS011;22384;54.302;18.596;2023-01-08T07:29:03;85.35;;;36.30;;
36355;SDS011;22384;54.302;18.596;2023-01-08T07:31:31;78.70;;;36.47;;
36355;SDS011;22384;54.302;18.596;2023-01-08T07:33:57;74.35;;;36.42;;
36355;SDS011;22384;54.302;18.596;2023-01-08T07:36:24;83.72;;;36.55;;
36355;SDS011;22384;54.302;18.596;2023-01-08T07:38:50;80.68;;;37.13;;
36355;SDS011;22384;54.302;18.596;2023-01-08T07:41:16;83.55;;;38.75;;
36355;SDS011;22384;54.302;18.596;2023-01-08T07:43:42;82.25;;;39.17;;
36355;SDS011;22384;54.302;18.596;2023-01-08T07:46:08;86.10;;;43.90;;
36355;SDS011;22384;54.302;18.596;2023-01-08T07:48:34;78.80;;;38.85;;
36355;SDS011;22384;54.302;18.596;2023-01-08T07:51:01;85.93;;;37.50;;
36355;SDS011;22384;54.302;18.596;2023-01-08T07:53:28;77.35;;;39.28;;
36355;SDS011;22384;54.302;18.596;2023-01-08T07:56:00;100.45;;;56.53;;
36355;SDS011;22384;54.302;18.596;2023-01-08T07:58:26;269.60;;;130.70;;
36355;SDS011;22384;54.302;18.596;2023-01-08T08:00:52;237.27;;;118.57;;
36355;SDS011;22384;54.302;18.596;2023-01-08T08:03:18;242.00;;;84.28;;
36355;SDS011;22384;54.302;18.596;2023-01-08T08:05:45;111.55;;;46.67;;
36355;SDS011;22384;54.302;18.596;2023-01-08T08:08:11;84.80;;;42.60;;
36355;SDS011;22384;54.302;18.596;2023-01-08T08:10:38;78.78;;;37.50;;
36355;SDS011;22384;54.302;18.596;2023-01-08T08:13:04;88.05;;;42.47;;
36355;SDS011;22384;54.302;18.596;2023-01-08T08:15:31;78.75;;;40.08;;
36355;SDS011;22384;54.302;18.596;2023-01-08T08:17:58;77.18;;;38.70;;
36355;SDS011;22384;54.302;18.596;2023-01-08T08:20:25;77.30;;;38.05;;
36355;SDS011;22384;54.302;18.596;2023-01-08T08:22:52;80.60;;;39.05;;
36355;SDS011;22384;54.302;18.596;2023-01-08T08:25:18;78.43;;;38.38;;
36355;SDS011;22384;54.302;18.596;2023-01-08T08:27:44;73.38;;;37.17;;
36355;SDS011;22384;54.302;18.596;2023-01-08T08:30:10;88.05;;;42.10;;
36355;SDS011;22384;54.302;18.596;2023-01-08T08:32:37;78.28;;;40.40;;
36355;SDS011;22384;54.302;18.596;2023-01-08T08:35:03;78.43;;;38.78;;
36355;SDS011;22384;54.302;18.596;2023-01-08T08:37:30;76.88;;;39.22;;
36355;SDS011;22384;54.302;18.596;2023-01-08T08:39:57;70.43;;;36.38;;
36355;SDS011;22384;54.302;18.596;2023-01-08T08:42:24;75.10;;;37.45;;
36355;SDS011;22384;54.302;18.596;2023-01-08T08:44:51;74.25;;;37.90;;
36355;SDS011;22384;54.302;18.596;2023-01-08T08:47:17;68.70;;;36.28;;
36355;SDS011;22384;54.302;18.596;2023-01-08T08:49:43;69.95;;;35.90;;
36355;SDS011;22384;54.302;18.596;2023-01-08T08:52:09;69.18;;;35.28;;
36355;SDS011;22384;54.302;18.596;2023-01-08T08:54:35;67.82;;;35.60;;
36355;SDS011;22384;54.302;18.596;2023-01-08T08:57:05;65.88;;;34.78;;
36355;SDS011;22384;54.302;18.596;2023-01-08T08:59:31;72.88;;;36.03;;
36355;SDS011;22384;54.302;18.596;2023-01-08T09:01:58;68.88;;;34.85;;
36355;SDS011;22384;54.302;18.596;2023-01-08T09:04:24;71.85;;;35.15;;
36355;SDS011;22384;54.302;18.596;2023-01-08T09:06:50;66.13;;;35.88;;
36355;SDS011;22384;54.302;18.596;2023-01-08T09:09:16;73.88;;;34.70;;
36355;SDS011;22384;54.302;18.596;2023-01-08T09:11:42;69.05;;;37.15;;
36355;SDS011;22384;54.302;18.596;2023-01-08T09:14:08;64.88;;;33.45;;
36355;SDS011;22384;54.302;18.596;2023-01-08T09:16:35;66.50;;;34.67;;
36355;SDS011;22384;54.302;18.596;2023-01-08T09:19:01;66.95;;;34.38;;
36355;SDS011;22384;54.302;18.596;2023-01-08T09:21:27;67.28;;;35.20;;
36355;SDS011;22384;54.302;18.596;2023-01-08T09:23:53;72.97;;;35.25;;
36355;SDS011;22384;54.302;18.596;2023-01-08T09:26:19;70.13;;;35.13;;
36355;SDS011;22384;54.302;18.596;2023-01-08T09:28:46;64.30;;;32.88;;
36355;SDS011;22384;54.302;18.596;2023-01-08T09:31:12;69.78;;;34.72;;
36355;SDS011;22384;54.302;18.596;2023-01-08T09:33:38;61.05;;;31.83;;
36355;SDS011;22384;54.302;18.596;2023-01-08T09:36:07;64.55;;;32.95;;
36355;SDS011;22384;54.302;18.596;2023-01-08T09:38:34;74.82;;;35.65;;
36355;SDS011;22384;54.302;18.596;2023-01-08T09:41:01;66.05;;;32.92;;
36355;SDS011;22384;54.302;18.596;2023-01-08T09:43:30;66.47;;;32.22;;
36355;SDS011;22384;54.302;18.596;2023-01-08T09:45:57;65.45;;;31.58;;
36355;SDS011;22384;54.302;18.596;2023-01-08T09:48:25;64.13;;;32.78;;
36355;SDS011;22384;54.302;18.596;2023-01-08T09:50:53;64.53;;;31.95;;
36355;SDS011;22384;54.302;18.596;2023-01-08T09:53:19;64.38;;;30.05;;
36355;SDS011;22384;54.302;18.596;2023-01-08T09:55:47;65.18;;;31.52;;
36355;SDS011;22384;54.302;18.596;2023-01-08T09:58:34;62.08;;;31.38;;
36355;SDS011;22384;54.302;18.596;2023-01-08T10:01:00;60.75;;;30.23;;
36355;SDS011;22384;54.302;18.596;2023-01-08T10:03:37;62.95;;;30.45;;
36355;SDS011;22384;54.302;18.596;2023-01-08T10:06:11;59.60;;;29.45;;
36355;SDS011;22384;54.302;18.596;2023-01-08T10:08:37;62.78;;;29.95;;
36355;SDS011;22384;54.302;18.596;2023-01-08T10:11:04;64.22;;;30.20;;
36355;SDS011;22384;54.302;18.596;2023-01-08T10:13:31;65.47;;;29.90;;
36355;SDS011;22384;54.302;18.596;2023-01-08T10:15:57;60.42;;;29.58;;
36355;SDS011;22384;54.302;18.596;2023-01-08T10:20:54;54.20;;;26.83;;
36355;SDS011;22384;54.302;18.596;2023-01-08T10:23:21;59.90;;;28.70;;
36355;SDS011;22384;54.302;18.596;2023-01-08T10:25:48;59.28;;;28.08;;
36355;SDS011;22384;54.302;18.596;2023-01-08T10:28:19;63.20;;;29.42;;
36355;SDS011;22384;54.302;18.596;2023-01-08T10:30:45;66.07;;;29.33;;
36355;SDS011;22384;54.302;18.596;2023-01-08T10:33:13;60.78;;;27.88;;
36355;SDS011;22384;54.302;18.596;2023-01-08T10:35:49;53.85;;;27.13;;
36355;SDS011;22384;54.302;18.596;2023-01-08T10:38:22;54.13;;;28.48;;
36355;SDS011;22384;54.302;18.596;2023-01-08T10:40:49;61.67;;;28.15;;
36355;SDS011;22384;54.302;18.596;2023-01-08T10:45:53;54.70;;;28.33;;
36355;SDS011;22384;54.302;18.596;2023-01-08T10:48:20;53.80;;;27.85;;
36355;SDS011;22384;54.302;18.596;2023-01-08T10:50:46;60.28;;;29.90;;
36355;SDS011;22384;54.302;18.596;2023-01-08T10:53:25;60.20;;;29.70;;
36355;SDS011;22384;54.302;18.596;2023-01-08T10:55:56;61.88;;;28.38;;
36355;SDS011;22384;54.302;18.596;2023-01-08T10:58:23;53.42;;;27.15;;
36355;SDS011;22384;54.302;18.596;2023-01-08T11:00:49;58.53;;;28.13;;
36355;SDS011;22384;54.302;18.596;2023-01-08T11:03:28;61.78;;;29.55;;
36355;SDS011;22384;54.302;18.596;2023-01-08T11:08:24;59.67;;;26.90;;
36355;SDS011;22384;54.302;18.596;2023-01-08T11:10:58;61.00;;;28.10;;
36355;SDS011;22384;54.302;18.596;2023-01-08T11:13:24;61.65;;;28.75;;
36355;SDS011;22384;54.302;18.596;2023-01-08T11:16:07;60.28;;;29.77;;
36355;SDS011;22384;54.302;18.596;2023-01-08T11:18:45;65.75;;;28.73;;
36355;SDS011;22384;54.302;18.596;2023-01-08T11:21:22;63.65;;;29.13;;
36355;SDS011;22384;54.302;18.596;2023-01-08T11:26:30;66.22;;;30.42;;
36355;SDS011;22384;54.302;18.596;2023-01-08T11:31:38;62.75;;;30.25;;
36355;SDS011;22384;54.302;18.596;2023-01-08T11:34:11;59.88;;;28.02;;
36355;SDS011;22384;54.302;18.596;2023-01-08T11:36:46;64.25;;;29.63;;
36355;SDS011;22384;54.302;18.596;2023-01-08T11:39:16;63.38;;;29.83;;
36355;SDS011;22384;54.302;18.596;2023-01-08T11:44:22;69.32;;;30.13;;
36355;SDS011;22384;54.302;18.596;2023-01-08T11:47:07;63.50;;;30.15;;
36355;SDS011;22384;54.302;18.596;2023-01-08T11:54:41;58.65;;;29.48;;
36355;SDS011;22384;54.302;18.596;2023-01-08T12:10:04;55.60;;;28.08;;
36355;SDS011;22384;54.302;18.596;2023-01-08T12:17:40;53.10;;;26.80;;
36355;SDS011;22384;54.302;18.596;2023-01-08T12:25:15;60.90;;;29.40;;
36355;SDS011;22384;54.302;18.596;2023-01-08T12:33:12;57.90;;;29.00;;
36355;SDS011;22384;54.302;18.596;2023-01-08T12:35:37;54.60;;;26.35;;
36355;SDS011;22384;54.302;18.596;2023-01-08T12:38:10;48.17;;;26.42;;
36355;SDS011;22384;54.302;18.596;2023-01-08T12:40:42;51.45;;;27.30;;
36355;SDS011;22384;54.302;18.596;2023-01-08T12:43:27;57.90;;;28.98;;
36355;SDS011;22384;54.302;18.596;2023-01-08T12:45:55;54.00;;;27.77;;
36355;SDS011;22384;54.302;18.596;2023-01-08T12:48:28;52.33;;;26.48;;
36355;SDS011;22384;54.302;18.596;2023-01-08T12:51:03;57.92;;;28.10;;
36355;SDS011;22384;54.302;18.596;2023-01-08T12:56:04;54.05;;;27.17;;
36355;SDS011;22384;54.302;18.596;2023-01-08T12:58:36;54.35;;;27.23;;
36355;SDS011;22384;54.302;18.596;2023-01-08T13:03:52;56.25;;;27.77;;
36355;SDS011;22384;54.302;18.596;2023-01-08T13:06:20;56.08;;;28.23;;
36355;SDS011;22384;54.302;18.596;2023-01-08T13:08:51;53.65;;;27.23;;
36355;SDS011;22384;54.302;18.596;2023-01-08T13:11:25;50.50;;;26.50;;
36355;SDS011;22384;54.302;18.596;2023-01-08T13:13:59;52.10;;;28.20;;
36355;SDS011;22384;54.302;18.596;2023-01-08T13:16:38;54.90;;;29.10;;
36355;SDS011;22384;54.302;18.596;2023-01-08T13:21:41;56.00;;;27.45;;
36355;SDS011;22384;54.302;18.596;2023-01-08T13:48:28;52.90;;;26.95;;
36355;SDS011;22384;54.302;18.596;2023-01-08T13:51:04;53.75;;;28.65;;
36355;SDS011;22384;54.302;18.596;2023-01-08T13:53:40;51.17;;;27.10;;
36355;SDS011;22384;54.302;18.596;2023-01-08T13:59:10;56.42;;;28.33;;
36355;SDS011;22384;54.302;18.596;2023-01-08T14:01:56;55.10;;;28.05;;
36355;SDS011;22384;54.302;18.596;2023-01-08T14:04:31;55.20;;;29.00;;
36355;SDS011;22384;54.302;18.596;2023-01-08T14:07:17;51.17;;;26.65;;
36355;SDS011;22384;54.302;18.596;2023-01-08T14:09:44;57.33;;;29.48;;
36355;SDS011;22384;54.302;18.596;2023-01-08T14:12:17;56.28;;;28.38;;
36355;SDS011;22384;54.302;18.596;2023-01-08T14:14:54;54.15;;;28.00;;
36355;SDS011;22384;54.302;18.596;2023-01-08T14:17:27;50.35;;;27.60;;
36355;SDS011;22384;54.302;18.596;2023-01-08T14:29:31;52.15;;;27.35;;
36355;SDS011;22384;54.302;18.596;2023-01-08T14:32:10;58.97;;;29.08;;
36355;SDS011;22384;54.302;18.596;2023-01-08T14:38:02;51.90;;;27.42;;
36355;SDS011;22384;54.302;18.596;2023-01-08T14:43:46;53.20;;;28.58;;
36355;SDS011;22384;54.302;18.596;2023-01-08T14:47:05;58.13;;;28.88;;
36355;SDS011;22384;54.302;18.596;2023-01-08T14:49:52;56.83;;;30.20;;
36355;SDS011;22384;54.302;18.596;2023-01-08T14:52:37;70.05;;;32.38;;
36355;SDS011;22384;54.302;18.596;2023-01-08T14:55:04;65.75;;;31.42;;
36355;SDS011;22384;54.302;18.596;2023-01-08T14:57:33;61.15;;;30.38;;
36355;SDS011;22384;54.302;18.596;2023-01-08T14:59:59;58.47;;;30.10;;
36355;SDS011;22384;54.302;18.596;2023-01-08T15:02:36;58.83;;;30.50;;
36355;SDS011;22384;54.302;18.596;2023-01-08T15:07:31;61.70;;;30.02;;
36355;SDS011;22384;54.302;18.596;2023-01-08T15:09:58;54.05;;;28.67;;
36355;SDS011;22384;54.302;18.596;2023-01-08T15:12:28;52.80;;;28.90;;
36355;SDS011;22384;54.302;18.596;2023-01-08T15:17:58;58.80;;;29.85;;
36355;SDS011;22384;54.302;18.596;2023-01-08T15:20:28;56.88;;;29.25;;
36355;SDS011;22384;54.302;18.596;2023-01-08T15:22:59;52.67;;;31.17;;
36355;SDS011;22384;54.302;18.596;2023-01-08T15:25:27;58.42;;;31.45;;
36355;SDS011;22384;54.302;18.596;2023-01-08T15:33:15;53.13;;;28.20;;
36355;SDS011;22384;54.302;18.596;2023-01-08T15:35:58;53.72;;;29.38;;
36355;SDS011;22384;54.302;18.596;2023-01-08T15:44:31;54.85;;;29.13;;
36355;SDS011;22384;54.302;18.596;2023-01-08T15:52:39;58.78;;;29.00;;
36355;SDS011;22384;54.302;18.596;2023-01-08T15:58:10;47.90;;;27.60;;
36355;SDS011;22384;54.302;18.596;2023-01-08T16:00:45;59.55;;;31.13;;
36355;SDS011;22384;54.302;18.596;2023-01-08T16:03:13;57.33;;;29.38;;
36355;SDS011;22384;54.302;18.596;2023-01-08T16:05:45;53.35;;;29.70;;
36355;SDS011;22384;54.302;18.596;2023-01-08T16:08:18;56.30;;;29.00;;
36355;SDS011;22384;54.302;18.596;2023-01-08T16:10:44;57.60;;;29.08;;
36355;SDS011;22384;54.302;18.596;2023-01-08T16:13:17;67.47;;;32.15;;
36355;SDS011;22384;54.302;18.596;2023-01-08T16:15:50;73.85;;;32.78;;
36355;SDS011;22384;54.302;18.596;2023-01-08T16:18:17;159.05;;;51.90;;
36355;SDS011;22384;54.302;18.596;2023-01-08T16:20:44;87.90;;;36.15;;
36355;SDS011;22384;54.302;18.596;2023-01-08T16:23:17;58.10;;;31.42;;
36355;SDS011;22384;54.302;18.596;2023-01-08T16:26:03;56.10;;;28.17;;
36355;SDS011;22384;54.302;18.596;2023-01-08T16:28:31;56.97;;;29.17;;
36355;SDS011;22384;54.302;18.596;2023-01-08T16:31:04;55.60;;;28.67;;
36355;SDS011;22384;54.302;18.596;2023-01-08T16:33:31;54.33;;;30.27;;
36355;SDS011;22384;54.302;18.596;2023-01-08T16:36:01;57.63;;;29.75;;
36355;SDS011;22384;54.302;18.596;2023-01-08T16:38:33;63.22;;;29.42;;
36355;SDS011;22384;54.302;18.596;2023-01-08T16:41:09;56.30;;;28.95;;
36355;SDS011;22384;54.302;18.596;2023-01-08T16:43:39;86.15;;;35.88;;
36355;SDS011;22384;54.302;18.596;2023-01-08T16:48:55;113.88;;;44.63;;